Main page
METAR-TAF:

METAR-TAF

Airports :

Southampton Airport

Southampton, England

latitude: 50-54N, longitude: 001-24W, elevation: 9 m

Current weather observation

The report was made 4 hours and 15 minutes ago, at 16:50 UTC
Wind 19 kt from the North/Northeast with gusts up to 32 kt, varying between North and East/Northeast
Temperature 10°C
Humidity 53%
Pressure 1028 hPa
Visibility 10 km or more
Few clouds at a height of 3600 ft

METAR: EGHI 281650Z 03019G32KT 360V070 9999 FEW036 10/01 Q1028

Time: 21:05 (21:05 UTC)

Forecast

The report was made 4 hours and 4 minutes ago, at 17:01 UTC
Forecast valid from 28 at 18 UTC to 28 at 23 UTC
Wind 18 kt from the Northeast with gusts up to 28 kt
Visibility 10 km or more
Scattered clouds at a height of 3000 ft
Becoming
from 28 at 18 UTC to 28 at 21 UTC
Wind 15 kt from the Northeast

TAF: EGHI 281701Z 2818/2823 04018G28KT 9999 SCT030 BECMG 2818/2821 04015KT

Weather observations and forecasts of more than 4000 airports (METAR and TAF reports).

The available stations are represented by yellow and red dots on the map.

Hover mouse over dot to see the name of the station.

Then click to see weather observations and forecasts.

To change the map : click on the green buttons with a black cross to zoom in, on the green button with a dash to zoom out, or on the green arrows for adjacent maps.


METAR-TAF: